createdAt,value
2022-11-04T00:02:07.823Z,46.00
2022-11-04T00:04:34.554Z,44.00
2022-11-04T00:07:01.275Z,45.25
2022-11-04T00:09:30.464Z,46.13
2022-11-04T00:12:16.275Z,46.85
2022-11-04T00:14:43.275Z,45.15
2022-11-04T00:17:22.367Z,45.90
2022-11-04T00:20:12.053Z,44.17
2022-11-04T00:22:59.227Z,43.67
2022-11-04T00:25:45.309Z,42.72
2022-11-04T00:28:30.386Z,46.72
2022-11-04T00:30:58.756Z,44.42
2022-11-04T00:33:25.821Z,43.53
2022-11-04T00:35:54.858Z,41.78
2022-11-04T00:38:22.266Z,44.15
2022-11-04T00:40:50.013Z,40.15
2022-11-04T00:43:19.276Z,39.85
2022-11-04T00:45:46.022Z,39.15
2022-11-04T00:48:12.920Z,39.13
2022-11-04T00:50:39.906Z,40.00
2022-11-04T00:53:06.917Z,38.85
2022-11-04T00:55:33.846Z,36.88
2022-11-04T00:58:00.518Z,38.42
2022-11-04T01:00:27.509Z,38.67
2022-11-04T01:02:54.288Z,41.30
2022-11-04T01:05:21.080Z,41.63
2022-11-04T01:07:47.786Z,43.83
2022-11-04T01:10:14.575Z,42.50
2022-11-04T01:12:41.212Z,42.97
2022-11-04T01:15:08.198Z,43.90
2022-11-04T01:17:35.062Z,45.60
2022-11-04T01:20:01.709Z,44.22
2022-11-04T01:22:29.890Z,43.22
2022-11-04T01:24:57.135Z,43.35
2022-11-04T01:27:24.014Z,44.75
2022-11-04T01:29:51.133Z,45.20
2022-11-04T01:32:18.033Z,43.40
2022-11-04T01:34:46.000Z,45.63
2022-11-04T01:37:12.655Z,45.70
2022-11-04T01:39:39.396Z,43.50
2022-11-04T01:42:06.117Z,44.50
2022-11-04T01:44:49.615Z,45.63
2022-11-04T01:50:08.793Z,46.40
2022-11-04T01:52:40.972Z,43.95
2022-11-04T01:55:13.371Z,44.25
2022-11-04T01:57:44.160Z,45.30
2022-11-04T02:00:12.351Z,45.92
2022-11-04T02:02:57.058Z,46.08
2022-11-04T02:05:25.075Z,44.80
2022-11-04T02:07:55.524Z,42.50
2022-11-04T02:10:28.595Z,43.20
2022-11-04T02:12:57.151Z,42.60
2022-11-04T02:15:55.895Z,41.95
2022-11-04T02:18:37.446Z,41.78
2022-11-04T02:21:34.781Z,40.20
2022-11-04T02:24:20.129Z,39.28
2022-11-04T02:27:35.488Z,39.80
2022-11-04T02:30:18.832Z,37.83
2022-11-04T02:33:15.587Z,36.47
2022-11-04T02:35:42.183Z,36.60
2022-11-04T02:38:36.820Z,36.40
2022-11-04T02:41:17.612Z,34.38
2022-11-04T02:44:05.882Z,32.85
2022-11-04T02:46:35.089Z,32.08
2022-11-04T02:49:17.097Z,34.25
2022-11-04T02:52:00.614Z,31.85
2022-11-04T02:57:00.700Z,30.88
2022-11-04T02:59:40.222Z,30.13
2022-11-04T03:02:12.674Z,31.00
2022-11-04T03:04:43.116Z,29.25
2022-11-04T03:07:15.102Z,29.35
2022-11-04T03:09:48.115Z,28.25
2022-11-04T03:12:18.202Z,27.88
2022-11-04T03:14:55.756Z,26.83
2022-11-04T03:17:36.512Z,29.13
2022-11-04T03:20:09.418Z,27.77
2022-11-04T03:22:37.306Z,27.75
2022-11-04T03:25:06.383Z,27.23
2022-11-04T03:27:33.093Z,28.35
2022-11-04T03:30:06.727Z,28.20
2022-11-04T03:32:58.835Z,27.45
2022-11-04T03:35:26.682Z,28.83
2022-11-04T03:37:53.791Z,29.00
2022-11-04T03:40:22.080Z,29.13
2022-11-04T03:42:57.305Z,29.30
2022-11-04T03:45:24.630Z,28.27
2022-11-04T03:47:52.050Z,29.45
2022-11-04T03:50:28.662Z,29.35
2022-11-04T03:52:55.812Z,30.80
2022-11-04T03:55:31.009Z,31.65
2022-11-04T03:58:07.047Z,29.70
2022-11-04T04:00:47.163Z,30.23
2022-11-04T04:03:28.307Z,30.45
2022-11-04T04:06:16.796Z,30.80
2022-11-04T04:09:21.241Z,30.80
2022-11-04T04:12:29.162Z,28.58
2022-11-04T04:15:04.936Z,30.23
2022-11-04T04:17:43.457Z,29.38
2022-11-04T04:20:16.784Z,30.55
2022-11-04T04:23:03.387Z,30.85
2022-11-04T04:25:50.738Z,29.85
2022-11-04T04:28:20.049Z,29.90
2022-11-04T04:30:47.759Z,31.17
2022-11-04T04:33:17.405Z,32.88
2022-11-04T04:35:56.551Z,29.70
2022-11-04T04:38:44.245Z,30.65
2022-11-04T04:41:37.033Z,32.20
2022-11-04T04:44:23.328Z,29.67
2022-11-04T04:46:52.213Z,31.73
2022-11-04T04:49:18.812Z,32.38
2022-11-04T04:51:47.951Z,34.50
2022-11-04T04:54:15.172Z,35.42
2022-11-04T04:56:41.968Z,34.00
2022-11-04T04:59:08.717Z,33.97
2022-11-04T05:01:35.534Z,34.50
2022-11-04T05:04:02.355Z,35.53
2022-11-04T05:06:29.070Z,35.15
2022-11-04T05:08:56.853Z,33.75
2022-11-04T05:11:24.645Z,35.42
2022-11-04T05:13:52.948Z,36.13
2022-11-04T05:16:19.749Z,36.42
2022-11-04T05:18:46.370Z,37.15
2022-11-04T05:21:16.162Z,35.28
2022-11-04T05:23:42.804Z,33.67
2022-11-04T05:26:09.577Z,34.75
2022-11-04T05:28:38.637Z,34.83
2022-11-04T05:31:06.841Z,34.25
2022-11-04T05:33:33.850Z,35.15
2022-11-04T05:36:14.116Z,33.70
2022-11-04T05:38:41.633Z,33.10
2022-11-04T05:41:10.238Z,34.58
2022-11-04T05:43:37.528Z,35.10
2022-11-04T05:46:04.359Z,32.63
2022-11-04T05:48:32.384Z,34.53
2022-11-04T05:51:00.752Z,34.60
2022-11-04T05:55:53.918Z,35.03
2022-11-04T05:58:20.813Z,35.40
2022-11-04T06:00:47.470Z,35.47
2022-11-04T06:03:16.334Z,36.53
2022-11-04T06:05:45.553Z,35.13
2022-11-04T06:08:13.625Z,34.38
2022-11-04T06:10:40.319Z,34.85
2022-11-04T06:13:06.958Z,34.97
2022-11-04T06:15:33.656Z,35.47
2022-11-04T06:18:00.376Z,33.75
2022-11-04T06:20:27.012Z,33.15
2022-11-04T06:22:53.652Z,34.85
2022-11-04T06:25:20.941Z,34.63
2022-11-04T06:27:48.664Z,33.22
2022-11-04T06:30:15.369Z,33.65
2022-11-04T06:32:42.172Z,34.28
2022-11-04T06:35:09.183Z,33.72
2022-11-04T06:37:36.153Z,32.92
2022-11-04T06:40:02.897Z,34.30
2022-11-04T06:42:29.608Z,32.45
2022-11-04T06:44:56.244Z,34.13
2022-11-04T06:47:25.059Z,32.85
2022-11-04T06:49:52.023Z,33.45
2022-11-04T06:52:18.771Z,32.75
2022-11-04T06:54:46.445Z,34.58
2022-11-04T06:57:13.106Z,33.40
2022-11-04T06:59:40.197Z,31.42
2022-11-04T07:02:07.351Z,31.65
2022-11-04T07:04:34.088Z,33.35
2022-11-04T07:07:00.793Z,32.70
2022-11-04T07:09:27.440Z,32.20
2022-11-04T07:11:54.176Z,30.20
2022-11-04T07:14:22.178Z,29.92
2022-11-04T07:16:52.354Z,33.08
2022-11-04T07:19:19.261Z,31.52
2022-11-04T07:21:45.973Z,33.03
2022-11-04T07:24:12.821Z,31.63
2022-11-04T07:26:40.133Z,33.53
2022-11-04T07:29:06.913Z,30.45
2022-11-04T07:31:33.674Z,30.95
2022-11-04T07:34:00.530Z,32.50
2022-11-04T07:36:27.170Z,32.97
2022-11-04T07:38:54.263Z,30.98
2022-11-04T07:41:21.758Z,32.25
2022-11-04T07:43:52.798Z,30.67
2022-11-04T07:46:20.590Z,29.45
2022-11-04T07:48:47.438Z,29.77
2022-11-04T07:51:17.363Z,29.48
2022-11-04T07:53:44.241Z,32.10
2022-11-04T07:56:12.836Z,29.27
2022-11-04T07:58:40.437Z,29.10
2022-11-04T08:01:16.227Z,30.77
2022-11-04T08:03:43.187Z,28.52
2022-11-04T08:06:12.885Z,30.80
2022-11-04T08:08:39.830Z,28.45
2022-11-04T08:11:16.819Z,29.90
2022-11-04T08:13:44.223Z,27.52
2022-11-04T08:16:16.419Z,28.60
2022-11-04T08:18:43.650Z,29.08
2022-11-04T08:21:11.867Z,29.00
2022-11-04T08:23:39.016Z,28.15
2022-11-04T08:26:10.349Z,28.35
2022-11-04T08:28:37.289Z,29.65
2022-11-04T08:31:09.549Z,27.95
2022-11-04T08:33:36.858Z,28.90
2022-11-04T08:36:09.401Z,29.10
2022-11-04T08:38:38.222Z,28.98
2022-11-04T08:41:06.732Z,29.83
2022-11-04T08:43:34.456Z,30.15
2022-11-04T08:46:02.263Z,31.42
2022-11-04T08:48:33.841Z,30.52
2022-11-04T08:51:01.086Z,31.27
2022-11-04T08:53:28.324Z,30.10
2022-11-04T08:55:57.868Z,30.55
2022-11-04T08:58:25.398Z,30.83
2022-11-04T09:00:52.696Z,32.30
2022-11-04T09:03:20.194Z,32.47
2022-11-04T09:05:49.657Z,31.35
2022-11-04T09:08:18.007Z,32.90
2022-11-04T09:10:46.953Z,32.42
2022-11-04T09:13:15.668Z,33.00
2022-11-04T09:15:42.706Z,33.17
2022-11-04T09:18:09.428Z,34.55
2022-11-04T09:20:39.399Z,33.53
2022-11-04T09:23:07.135Z,33.08
2022-11-04T09:25:35.017Z,33.58
2022-11-04T09:28:01.819Z,31.90
2022-11-04T09:30:28.712Z,32.78
2022-11-04T09:32:55.469Z,32.38
2022-11-04T09:35:22.788Z,33.60
2022-11-04T09:37:50.725Z,32.47
2022-11-04T09:40:23.491Z,32.30
2022-11-04T09:45:34.096Z,31.67
2022-11-04T09:48:07.660Z,32.08
2022-11-04T09:50:51.173Z,30.50
2022-11-04T09:53:30.578Z,30.83
2022-11-04T09:56:10.645Z,28.45
2022-11-04T09:58:39.228Z,27.90
2022-11-04T10:01:07.054Z,29.40
2022-11-04T10:03:51.998Z,28.83
2022-11-04T10:06:32.389Z,28.80
2022-11-04T10:09:39.721Z,29.30
2022-11-04T10:15:34.864Z,29.60
2022-11-04T10:18:19.875Z,28.98
2022-11-04T10:20:46.539Z,29.10
2022-11-04T10:23:34.357Z,28.58
2022-11-04T10:26:15.011Z,28.80
2022-11-04T10:28:46.374Z,28.58
2022-11-04T10:31:18.612Z,30.58
2022-11-04T10:34:09.117Z,29.88
2022-11-04T10:36:37.971Z,29.70
2022-11-04T10:39:17.704Z,31.08
2022-11-04T10:41:46.063Z,29.67
2022-11-04T10:44:24.126Z,29.33
2022-11-04T10:47:09.646Z,29.75
2022-11-04T10:50:26.559Z,30.98
2022-11-04T10:52:43.171Z,31.80
2022-11-04T10:55:15.441Z,31.20
2022-11-04T10:57:45.047Z,33.17
2022-11-04T11:00:38.260Z,31.88
2022-11-04T11:03:25.198Z,32.38
2022-11-04T11:05:55.298Z,30.85
2022-11-04T11:08:33.719Z,33.30
2022-11-04T11:11:00.539Z,32.67
2022-11-04T11:13:34.842Z,35.38
2022-11-04T11:16:17.416Z,35.53
2022-11-04T11:18:44.121Z,34.38
2022-11-04T11:21:21.230Z,37.10
2022-11-04T11:23:51.032Z,37.30
2022-11-04T11:26:29.350Z,35.50
2022-11-04T11:29:02.164Z,39.85
2022-11-04T11:31:38.501Z,38.55
2022-11-04T11:34:15.081Z,38.92
2022-11-04T11:36:44.797Z,40.72
2022-11-04T11:39:17.005Z,38.85
2022-11-04T11:41:59.197Z,40.87
2022-11-04T11:44:32.856Z,41.35
2022-11-04T11:47:03.072Z,37.05
2022-11-04T11:49:34.472Z,41.45
2022-11-04T11:52:38.482Z,41.63
2022-11-04T12:01:42.601Z,40.47
2022-11-04T12:10:51.691Z,42.90
2022-11-04T12:13:26.515Z,45.20
2022-11-04T12:16:35.377Z,44.53
2022-11-04T12:19:17.172Z,42.65
2022-11-04T12:22:10.992Z,45.95
2022-11-04T12:27:52.404Z,45.83
2022-11-04T12:30:32.313Z,42.92
2022-11-04T12:33:30.127Z,44.60
2022-11-04T12:36:20.882Z,43.53
2022-11-04T12:39:04.175Z,41.92
2022-11-04T12:42:20.155Z,42.28
2022-11-04T12:45:09.941Z,42.70
2022-11-04T12:47:40.831Z,39.88
2022-11-04T12:50:25.260Z,41.92
2022-11-04T12:53:17.806Z,38.75
2022-11-04T12:55:52.881Z,39.38
2022-11-04T12:59:09.860Z,39.92
2022-11-04T13:02:11.968Z,44.78
2022-11-04T13:04:56.106Z,45.60
2022-11-04T13:07:36.006Z,40.17
2022-11-04T13:10:12.512Z,45.25
2022-11-04T13:12:43.654Z,44.38
2022-11-04T13:15:26.032Z,44.83
2022-11-04T13:18:00.193Z,45.83
2022-11-04T13:20:45.626Z,47.75
2022-11-04T13:23:41.843Z,47.47
2022-11-04T13:26:14.650Z,52.90
2022-11-04T13:28:43.023Z,48.17
2022-11-04T13:31:27.339Z,51.35
2022-11-04T13:34:33.248Z,46.38
2022-11-04T13:37:23.364Z,46.58
2022-11-04T13:39:56.267Z,44.10
2022-11-04T13:42:25.776Z,42.97
2022-11-04T13:44:57.169Z,46.35
2022-11-04T13:47:31.895Z,45.33
2022-11-04T13:49:58.750Z,44.88
2022-11-04T13:52:30.595Z,45.70
2022-11-04T13:55:02.789Z,42.83
2022-11-04T13:58:05.056Z,41.40
2022-11-04T14:00:33.757Z,42.05
2022-11-04T14:03:21.104Z,40.22
2022-11-04T14:06:08.655Z,38.53
2022-11-04T14:08:35.804Z,40.50
2022-11-04T14:11:06.771Z,24.67
2022-11-04T14:13:34.981Z,31.95
2022-11-04T14:16:04.534Z,33.65
2022-11-04T14:18:37.200Z,29.85
2022-11-04T14:21:06.362Z,31.05
2022-11-04T14:23:34.011Z,29.80
2022-11-04T14:26:06.511Z,29.63
2022-11-04T14:28:34.463Z,32.70
2022-11-04T14:31:17.404Z,32.30
2022-11-04T14:33:57.411Z,32.47
2022-11-04T14:36:24.481Z,32.88
2022-11-04T14:39:10.762Z,37.65
2022-11-04T14:41:40.662Z,32.28
2022-11-04T14:44:32.524Z,30.17
2022-11-04T14:47:22.447Z,32.55
2022-11-04T14:49:59.771Z,32.20
2022-11-04T14:52:47.460Z,32.92
2022-11-04T14:55:29.943Z,34.05
2022-11-04T14:58:00.690Z,34.75
2022-11-04T15:00:32.200Z,33.92
2022-11-04T15:03:05.141Z,35.25
2022-11-04T15:05:36.532Z,36.40
2022-11-04T15:08:23.409Z,36.47
2022-11-04T15:10:50.984Z,36.58
2022-11-04T15:13:21.195Z,35.58
2022-11-04T15:15:50.702Z,35.25
2022-11-04T15:18:28.473Z,35.67
2022-11-04T15:21:00.782Z,36.42
2022-11-04T15:23:47.539Z,36.63
2022-11-04T15:26:32.255Z,37.17
2022-11-04T15:29:08.217Z,36.33
2022-11-04T15:31:36.063Z,35.33
2022-11-04T15:34:14.198Z,34.70
2022-11-04T15:36:43.695Z,35.70
2022-11-04T15:39:30.278Z,36.63
2022-11-04T15:42:20.513Z,32.95
2022-11-04T15:44:53.625Z,16.65
2022-11-04T15:47:20.335Z,11.05
2022-11-04T15:49:50.721Z,4.28
2022-11-04T15:52:22.548Z,3.55
2022-11-04T15:54:53.277Z,2.00
2022-11-04T15:57:24.155Z,1.55
2022-11-04T16:00:07.141Z,1.42
2022-11-04T16:02:47.453Z,1.17
2022-11-04T16:05:17.220Z,1.23
2022-11-04T16:07:48.804Z,1.52
2022-11-04T16:10:31.675Z,1.52
2022-11-04T16:13:02.233Z,1.20
2022-11-04T16:15:48.240Z,1.42
2022-11-04T16:18:30.335Z,1.40
2022-11-04T16:20:58.090Z,1.52
2022-11-04T16:23:28.238Z,1.45
2022-11-04T16:26:05.905Z,1.33
2022-11-04T16:28:37.056Z,1.30
2022-11-04T16:31:07.976Z,1.20
2022-11-04T16:33:34.737Z,1.20
2022-11-04T16:36:01.808Z,1.20
2022-11-04T16:38:28.483Z,1.20
2022-11-04T16:40:55.205Z,1.40
2022-11-04T16:43:22.434Z,1.60
2022-11-04T16:45:54.368Z,1.15
2022-11-04T16:48:22.012Z,1.30
2022-11-04T16:50:49.239Z,1.48
2022-11-04T16:53:17.025Z,1.15
2022-11-04T16:55:47.303Z,1.23
2022-11-04T16:58:18.012Z,0.80
2022-11-04T17:00:44.751Z,1.17
2022-11-04T17:03:22.909Z,1.40
2022-11-04T17:05:51.746Z,1.85
2022-11-04T17:08:18.534Z,1.58
2022-11-04T17:10:45.387Z,1.52
2022-11-04T17:13:13.026Z,1.50
2022-11-04T17:15:40.646Z,1.60
2022-11-04T17:18:09.535Z,1.17
2022-11-04T17:20:36.265Z,1.42
2022-11-04T17:23:03.122Z,0.65
2022-11-04T17:25:30.482Z,0.73
2022-11-04T17:27:58.169Z,0.50
2022-11-04T17:30:25.828Z,0.65
2022-11-04T17:32:52.623Z,0.60
2022-11-04T17:35:19.334Z,0.90
2022-11-04T17:37:46.201Z,0.82
2022-11-04T17:40:16.145Z,0.70
2022-11-04T17:43:04.423Z,0.68
2022-11-04T17:45:35.535Z,0.70
2022-11-04T17:48:06.755Z,0.60
2022-11-04T17:50:34.548Z,0.45
2022-11-04T17:53:01.226Z,0.88
2022-11-04T17:55:28.525Z,0.80
2022-11-04T17:57:57.935Z,0.57
2022-11-04T18:00:29.669Z,0.65
2022-11-04T18:02:56.858Z,0.70
2022-11-04T18:05:23.551Z,0.90
2022-11-04T18:07:50.237Z,0.60
2022-11-04T18:10:17.058Z,0.60
2022-11-04T18:12:43.953Z,0.60
2022-11-04T18:15:17.159Z,1.08
2022-11-04T18:17:46.756Z,0.70
2022-11-04T18:20:18.074Z,1.27
2022-11-04T18:22:45.382Z,1.70
2022-11-04T18:25:12.833Z,0.80
2022-11-04T18:27:42.240Z,0.85
2022-11-04T18:30:09.465Z,0.70
2022-11-04T18:32:36.196Z,0.70
2022-11-04T18:35:03.008Z,0.88
2022-11-04T18:37:29.984Z,0.77
2022-11-04T18:39:56.848Z,0.77
2022-11-04T18:42:23.638Z,0.60
2022-11-04T18:44:50.398Z,0.82
2022-11-04T18:47:17.863Z,0.90
2022-11-04T18:49:44.705Z,0.80
2022-11-04T18:52:11.551Z,0.90
2022-11-04T18:55:02.608Z,0.90
2022-11-04T18:57:30.958Z,0.95
2022-11-04T18:59:57.650Z,1.13
2022-11-04T19:02:25.459Z,1.02
2022-11-04T19:04:52.503Z,1.00
2022-11-04T19:07:19.730Z,1.13
2022-11-04T19:09:47.713Z,1.30
2022-11-04T19:12:33.490Z,1.10
2022-11-04T19:15:00.170Z,1.20
2022-11-04T19:17:27.465Z,1.48
2022-11-04T19:19:54.425Z,1.10
2022-11-04T19:22:21.104Z,0.98
2022-11-04T19:24:47.993Z,1.13
2022-11-04T19:27:15.004Z,1.23
2022-11-04T19:29:41.670Z,1.17
2022-11-04T19:32:13.842Z,0.95
2022-11-04T19:34:41.295Z,1.10
2022-11-04T19:37:07.947Z,0.93
2022-11-04T19:39:37.209Z,1.83
2022-11-04T19:42:23.675Z,1.27
2022-11-04T19:44:50.469Z,1.10
2022-11-04T19:47:17.147Z,1.40
2022-11-04T19:49:43.803Z,1.20
2022-11-04T19:52:12.556Z,1.38
2022-11-04T19:54:40.134Z,1.10
2022-11-04T19:57:10.498Z,1.40
2022-11-04T19:59:39.080Z,1.23
2022-11-04T20:02:10.589Z,1.23
2022-11-04T20:04:38.150Z,1.13
2022-11-04T20:07:06.327Z,1.58
2022-11-04T20:09:33.394Z,1.20
2022-11-04T20:12:18.564Z,1.48
2022-11-04T20:14:45.517Z,1.23
2022-11-04T20:17:12.135Z,1.60
2022-11-04T20:19:38.823Z,1.70
2022-11-04T20:22:05.859Z,1.58
2022-11-04T20:24:32.654Z,1.63
2022-11-04T20:26:59.342Z,1.95
2022-11-04T20:29:25.974Z,2.10
2022-11-04T20:31:52.640Z,1.60
2022-11-04T20:34:22.902Z,1.70
2022-11-04T20:36:49.632Z,1.70
2022-11-04T20:39:20.359Z,1.60
2022-11-04T20:41:47.650Z,1.50
2022-11-04T20:44:15.731Z,1.92
2022-11-04T20:46:43.377Z,1.77
2022-11-04T20:49:10.763Z,1.92
2022-11-04T20:51:50.109Z,1.65
2022-11-04T20:54:20.904Z,1.40
2022-11-04T20:56:47.732Z,1.10
2022-11-04T20:59:14.927Z,1.30
2022-11-04T21:01:44.531Z,1.33
2022-11-04T21:04:18.757Z,1.42
2022-11-04T21:06:50.816Z,1.30
2022-11-04T21:09:19.628Z,1.20
2022-11-04T21:11:46.612Z,1.45
2022-11-04T21:14:16.192Z,1.38
2022-11-04T21:16:43.760Z,1.40
2022-11-04T21:19:12.095Z,1.88
2022-11-04T21:21:40.292Z,1.38
2022-11-04T21:24:07.233Z,1.50
2022-11-04T21:26:36.101Z,3.85
2022-11-04T21:29:06.097Z,4.28
2022-11-04T21:31:35.015Z,1.25
2022-11-04T21:34:02.092Z,1.73
2022-11-04T21:36:30.681Z,1.10
2022-11-04T21:38:59.113Z,1.30
2022-11-04T21:41:29.746Z,1.13
2022-11-04T21:44:02.019Z,1.48
2022-11-04T21:46:30.539Z,1.38
2022-11-04T21:48:57.765Z,0.90
2022-11-04T21:51:28.937Z,1.30
2022-11-04T21:53:56.573Z,1.25
2022-11-04T21:56:26.687Z,1.50
2022-11-04T21:58:54.157Z,1.42
2022-11-04T22:01:24.928Z,1.33
2022-11-04T22:03:59.419Z,1.50
2022-11-04T22:06:32.364Z,1.50
2022-11-04T22:09:00.756Z,1.95
2022-11-04T22:11:32.519Z,1.35
2022-11-04T22:14:04.742Z,1.33
2022-11-04T22:16:34.153Z,1.60
2022-11-04T22:19:03.330Z,1.52
2022-11-04T22:21:32.528Z,1.67
2022-11-04T22:24:00.272Z,1.58
2022-11-04T22:26:32.558Z,1.67
2022-11-04T22:29:00.000Z,1.70
2022-11-04T22:31:32.480Z,1.58
2022-11-04T22:34:00.818Z,1.38
2022-11-04T22:36:29.182Z,2.00
2022-11-04T22:38:56.329Z,1.67
2022-11-04T22:41:28.037Z,1.58
2022-11-04T22:43:55.678Z,2.00
2022-11-04T22:46:28.749Z,1.90
2022-11-04T22:48:55.750Z,1.67
2022-11-04T22:51:22.481Z,1.77
2022-11-04T22:53:57.666Z,1.77
2022-11-04T22:56:25.960Z,1.88
2022-11-04T22:58:54.271Z,1.50
2022-11-04T23:01:21.652Z,1.80
2022-11-04T23:03:50.617Z,2.00
2022-11-04T23:06:17.471Z,2.03
2022-11-04T23:08:45.151Z,2.20
2022-11-04T23:11:40.006Z,1.90
2022-11-04T23:14:25.897Z,1.80
2022-11-04T23:17:11.282Z,2.03
2022-11-04T23:19:39.177Z,2.08
2022-11-04T23:22:26.359Z,2.75
2022-11-04T23:25:06.124Z,2.10
2022-11-04T23:27:53.250Z,2.20
2022-11-04T23:30:21.125Z,2.28
2022-11-04T23:32:58.893Z,2.10
2022-11-04T23:35:58.105Z,2.58
2022-11-04T23:38:26.008Z,2.40
2022-11-04T23:41:15.352Z,2.70
2022-11-04T23:43:42.149Z,2.30
2022-11-04T23:46:27.402Z,2.13
2022-11-04T23:49:14.326Z,2.60
2022-11-04T23:51:59.688Z,2.88
2022-11-04T23:54:46.299Z,2.47
2022-11-04T23:57:33.677Z,2.80
